Time;durP1;ratioP1;P1;durP2;ratioP2;P2;SDS_P1;SDS_P2;PMS_P1;PMS_P2;Temp;Humidity;BMP_temperature;BMP_pressure;BME280_temperature;BME280_humidity;BME280_pressure;Samples;Min_cycle;Max_cycle;Signal;HPM_P1;HPM_P2
2021/11/08 00:00:07;;;;;;;0.32;0.32;;;8.00;99.90;;;;;;4427730;32;20085;-64
2021/11/08 00:02:36;;;;;;;1.50;0.75;;;8.10;99.90;;;;;;4414616;32;20061;-64
2021/11/08 00:05:02;;;;;;;0.40;0.40;;;8.00;99.90;;;;;;4411992;32;20594;-64
2021/11/08 00:07:28;;;;;;;0.28;0.25;;;7.90;99.90;;;;;;4422122;32;20504;-64
2021/11/08 00:09:53;;;;;;;0.30;0.30;;;7.90;99.90;;;;;;4425881;32;20406;-63
2021/11/08 00:12:22;;;;;;;5.90;1.20;;;7.90;99.90;;;;;;4413232;32;20081;-64
2021/11/08 00:14:49;;;;;;;0.30;0.30;;;7.80;99.90;;;;;;4415110;32;20538;-64
2021/11/08 00:17:32;;;;;;;0.73;0.73;;;7.80;99.90;;;;;;4415108;32;20077;-64
2021/11/08 00:20:09;;;;;;;0.40;0.40;;;7.80;99.90;;;;;;4429453;32;20077;-64
2021/11/08 00:22:38;;;;;;;1.08;0.73;;;7.80;99.90;;;;;;4429268;32;20421;-64
2021/11/08 00:25:04;;;;;;;0.20;0.20;;;7.80;99.90;;;;;;4427138;32;20128;-64
2021/11/08 00:27:29;;;;;;;3.62;1.33;;;7.80;99.90;;;;;;4427361;32;20140;-64
2021/11/08 00:29:55;;;;;;;0.30;0.30;;;7.80;99.90;;;;;;4426489;32;20077;-64
2021/11/08 00:32:21;;;;;;;0.50;0.50;;;7.80;99.90;;;;;;4426268;32;20077;-64
2021/11/08 00:34:46;;;;;;;0.60;0.37;;;7.80;99.90;;;;;;4426467;32;20440;-65
2021/11/08 00:37:12;;;;;;;0.82;0.60;;;7.80;99.90;;;;;;4414318;32;20061;-65
2021/11/08 00:39:38;;;;;;;11.55;0.85;;;7.70;99.90;;;;;;4428051;32;20074;-64
2021/11/08 00:42:05;;;;;;;0.30;0.30;;;7.70;99.90;;;;;;4415589;32;20549;-64
2021/11/08 00:44:30;;;;;;;0.20;0.20;;;7.70;99.90;;;;;;4415081;32;20120;-64
2021/11/08 00:46:56;;;;;;;0.68;0.68;;;7.70;99.90;;;;;;4422656;32;20073;-64
2021/11/08 00:49:23;;;;;;;0.35;0.35;;;7.70;99.90;;;;;;4428989;32;20094;-64
2021/11/08 00:51:49;;;;;;;29.00;1.70;;;7.70;99.90;;;;;;4423506;32;20061;-64
2021/11/08 00:54:15;;;;;;;2.30;0.85;;;7.70;99.90;;;;;;4414931;32;20073;-64
2021/11/08 00:56:45;;;;;;;0.20;0.20;;;7.70;99.90;;;;;;4416357;32;20081;-64
2021/11/08 00:59:14;;;;;;;0.35;0.35;;;7.60;99.90;;;;;;4403555;32;20074;-64
2021/11/08 01:01:40;;;;;;;2.37;1.05;;;7.60;99.90;;;;;;4415880;32;20122;-64
2021/11/08 01:04:06;;;;;;;0.62;0.43;;;7.70;99.90;;;;;;4427805;32;20173;-64
2021/11/08 01:06:32;;;;;;;0.30;0.30;;;7.60;99.90;;;;;;4419983;32;20088;-64
2021/11/08 01:08:57;;;;;;;0.73;0.73;;;7.60;99.90;;;;;;4427495;32;20077;-64
2021/11/08 01:11:23;;;;;;;0.30;0.30;;;7.60;99.90;;;;;;4423771;32;20127;-64
2021/11/08 01:13:48;;;;;;;2.65;1.40;;;7.70;99.90;;;;;;4429747;32;20553;-64
2021/11/08 01:16:14;;;;;;;0.40;0.40;;;7.70;99.90;;;;;;4428984;32;20081;-64
2021/11/08 01:18:40;;;;;;;6.30;1.87;;;7.70;99.90;;;;;;4426701;32;20547;-64
2021/11/08 01:21:08;;;;;;;4.28;0.73;;;7.60;99.90;;;;;;4429495;32;20413;-64
2021/11/08 01:23:34;;;;;;;1.08;0.90;;;7.60;99.90;;;;;;4425653;32;20077;-64
2021/11/08 01:26:05;;;;;;;0.32;0.32;;;7.60;99.90;;;;;;4428447;32;20061;-64
2021/11/08 01:28:35;;;;;;;1.25;1.00;;;7.60;99.90;;;;;;4413725;32;20069;-64
2021/11/08 01:31:00;;;;;;;0.82;0.82;;;7.60;99.90;;;;;;4425898;32;20094;-65
2021/11/08 01:33:26;;;;;;;1.80;0.88;;;7.60;99.90;;;;;;4414769;32;20068;-65
2021/11/08 01:36:09;;;;;;;0.20;0.20;;;7.70;99.90;;;;;;4428061;32;20480;-65
2021/11/08 01:38:39;;;;;;;4.20;1.37;;;7.70;99.90;;;;;;4426957;32;20077;-64
2021/11/08 01:41:06;;;;;;;0.53;0.53;;;7.60;99.90;;;;;;4429018;32;20173;-64
2021/11/08 01:43:33;;;;;;;0.40;0.40;;;7.60;99.90;;;;;;4426636;32;20065;-65
2021/11/08 01:45:59;;;;;;;0.40;0.40;;;7.60;99.90;;;;;;4421798;32;20058;-65
2021/11/08 01:48:24;;;;;;;3.10;1.23;;;7.70;99.90;;;;;;4427740;32;20053;-64
2021/11/08 01:50:50;;;;;;;0.35;0.35;;;7.70;99.90;;;;;;4429066;32;20082;-64
2021/11/08 01:53:16;;;;;;;0.20;0.20;;;7.70;99.90;;;;;;4410499;32;20074;-65
2021/11/08 01:55:42;;;;;;;0.35;0.35;;;7.70;99.90;;;;;;4411301;32;20085;-64
2021/11/08 01:58:08;;;;;;;0.50;0.50;;;7.70;99.90;;;;;;4414417;32;20082;-64
2021/11/08 02:00:34;;;;;;;0.40;0.40;;;7.70;99.90;;;;;;4414610;32;20506;-64
2021/11/08 02:03:00;;;;;;;0.47;0.47;;;7.70;99.90;;;;;;4425895;32;20072;-64
2021/11/08 02:05:26;;;;;;;0.50;0.50;;;7.70;99.90;;;;;;4428182;32;20073;-65
2021/11/08 02:07:51;;;;;;;6.30;0.82;;;7.80;99.90;;;;;;4409172;32;20622;-65
2021/11/08 02:10:18;;;;;;;0.20;0.20;;;7.80;99.90;;;;;;4426727;32;20209;-64
2021/11/08 02:12:44;;;;;;;0.62;0.62;;;7.80;99.90;;;;;;4428200;32;20086;-64
2021/11/08 02:15:14;;;;;;;0.40;0.40;;;7.80;99.90;;;;;;4412175;32;20058;-64
2021/11/08 02:17:43;;;;;;;0.50;0.50;;;7.80;99.90;;;;;;4413995;32;20127;-64
2021/11/08 02:20:28;;;;;;;0.30;0.30;;;7.80;99.90;;;;;;4426615;32;20093;-64
2021/11/08 02:22:57;;;;;;;1.55;0.65;;;7.80;99.90;;;;;;4413511;32;20097;-65
2021/11/08 02:25:25;;;;;;;10.57;0.70;;;7.80;99.90;;;;;;4414403;32;20069;-65
2021/11/08 02:27:52;;;;;;;1.12;0.85;;;7.80;99.90;;;;;;4428500;32;20069;-64
2021/11/08 02:30:21;;;;;;;0.88;0.85;;;7.80;99.90;;;;;;4425232;32;20527;-64
2021/11/08 02:32:47;;;;;;;0.37;0.37;;;7.80;99.90;;;;;;4409817;32;20082;-64
2021/11/08 02:35:15;;;;;;;0.30;0.30;;;7.70;99.90;;;;;;4422268;32;20077;-64
2021/11/08 02:37:41;;;;;;;0.43;0.43;;;7.80;99.90;;;;;;4398967;32;20070;-64
2021/11/08 02:40:13;;;;;;;0.57;0.57;;;7.80;99.90;;;;;;4413953;32;20085;-65
2021/11/08 02:42:39;;;;;;;0.45;0.37;;;7.80;99.90;;;;;;4412754;32;20078;-64
2021/11/08 02:45:07;;;;;;;0.30;0.30;;;7.80;99.90;;;;;;4428393;32;20061;-64
2021/11/08 02:47:34;;;;;;;18.80;0.85;;;7.80;99.90;;;;;;4427352;32;20319;-65
2021/11/08 02:50:02;;;;;;;1.00;0.62;;;7.80;99.90;;;;;;4413883;32;20069;-65
2021/11/08 02:52:28;;;;;;;0.30;0.30;;;7.80;99.90;;;;;;4427048;32;20085;-65
2021/11/08 02:54:53;;;;;;;1.08;0.55;;;7.80;99.90;;;;;;4426981;32;20467;-65
2021/11/08 02:57:23;;;;;;;0.65;0.62;;;7.90;99.90;;;;;;4426824;32;20455;-64
2021/11/08 02:59:49;;;;;;;1.37;0.95;;;7.90;99.90;;;;;;4411069;32;20571;-65
2021/11/08 03:02:16;;;;;;;0.50;0.50;;;7.80;99.90;;;;;;4411723;32;20118;-65
2021/11/08 03:04:43;;;;;;;0.40;0.40;;;7.80;99.90;;;;;;4427170;32;20069;-64
2021/11/08 03:07:10;;;;;;;0.60;0.60;;;7.80;99.90;;;;;;4393372;32;20073;-64
2021/11/08 03:09:40;;;;;;;8.38;0.65;;;7.80;99.90;;;;;;4425683;32;20419;-65
2021/11/08 03:12:11;;;;;;;0.40;0.40;;;7.80;99.90;;;;;;4427562;32;20074;-65
2021/11/08 03:14:43;;;;;;;0.68;0.68;;;7.80;99.90;;;;;;4425639;32;20728;-65
2021/11/08 03:17:11;;;;;;;0.30;0.30;;;7.80;99.90;;;;;;4426909;32;20104;-65
2021/11/08 03:19:38;;;;;;;4.43;1.90;;;7.80;99.90;;;;;;4410351;32;20081;-64
2021/11/08 03:22:11;;;;;;;0.60;0.60;;;7.80;99.90;;;;;;4410365;32;20069;-65
2021/11/08 03:24:41;;;;;;;0.30;0.30;;;7.80;99.90;;;;;;4423287;32;21061;-64
2021/11/08 03:27:15;;;;;;;0.80;0.80;;;7.80;99.90;;;;;;4422051;32;20081;-64
2021/11/08 03:29:41;;;;;;;0.50;0.50;;;7.80;99.90;;;;;;4407984;32;20081;-65
2021/11/08 03:32:06;;;;;;;3.72;1.48;;;7.80;99.90;;;;;;4420718;32;20184;-65
2021/11/08 03:34:36;;;;;;;0.28;0.28;;;7.80;99.90;;;;;;4416037;32;20092;-64
2021/11/08 03:37:02;;;;;;;2.50;1.48;;;7.80;99.90;;;;;;4423247;32;20097;-65
2021/11/08 03:39:27;;;;;;;2.97;0.82;;;7.80;99.90;;;;;;4421385;32;20527;-64
2021/11/08 03:41:53;;;;;;;8.77;0.90;;;7.90;99.90;;;;;;4425470;32;20093;-64
2021/11/08 03:44:18;;;;;;;7.53;2.95;;;7.90;99.90;;;;;;4427661;32;20078;-65
2021/11/08 03:46:44;;;;;;;0.20;0.20;;;7.90;99.90;;;;;;4428034;32;20472;-64
2021/11/08 03:49:09;;;;;;;0.30;0.30;;;7.90;99.90;;;;;;4428803;32;20417;-65
2021/11/08 03:51:35;;;;;;;0.40;0.40;;;7.90;99.90;;;;;;4430210;32;20156;-65
2021/11/08 03:54:03;;;;;;;9.15;2.08;;;8.00;99.90;;;;;;4428644;32;20093;-65
2021/11/08 03:56:29;;;;;;;0.77;0.60;;;8.00;99.90;;;;;;4427068;32;20080;-65
2021/11/08 03:58:55;;;;;;;0.30;0.30;;;8.00;99.90;;;;;;4428415;32;20073;-65
2021/11/08 04:01:21;;;;;;;0.37;0.37;;;8.00;99.90;;;;;;4415844;32;20085;-65
2021/11/08 04:03:47;;;;;;;1.08;0.52;;;7.90;99.90;;;;;;4429080;32;20085;-65
2021/11/08 04:06:12;;;;;;;0.85;0.82;;;7.90;99.90;;;;;;4429803;32;20179;-64
2021/11/08 04:08:38;;;;;;;0.98;0.77;;;7.90;99.90;;;;;;4428611;32;20192;-64
2021/11/08 04:11:04;;;;;;;1.27;1.12;;;7.90;99.90;;;;;;4415629;32;20074;-65
2021/11/08 04:13:34;;;;;;;0.70;0.70;;;8.00;99.90;;;;;;4430534;32;20070;-65
2021/11/08 04:16:02;;;;;;;1.10;0.98;;;8.00;99.90;;;;;;4416698;32;20086;-65
2021/11/08 04:18:29;;;;;;;0.57;0.57;;;8.00;99.90;;;;;;4428233;32;20066;-64
2021/11/08 04:20:56;;;;;;;0.30;0.30;;;8.00;99.90;;;;;;4412372;32;20109;-64
2021/11/08 04:23:24;;;;;;;0.30;0.30;;;8.00;99.90;;;;;;4401990;32;20109;-64
2021/11/08 04:25:50;;;;;;;0.37;0.37;;;8.10;99.90;;;;;;4401583;32;20437;-64
2021/11/08 04:28:15;;;;;;;2.17;0.77;;;8.10;99.90;;;;;;4423525;32;20577;-64
2021/11/08 04:30:42;;;;;;;3.20;1.40;;;8.10;99.90;;;;;;4426600;32;20069;-65
2021/11/08 04:33:47;;;;;;;0.95;0.50;;;8.10;99.90;;;;;;4427852;32;84283;-64
2021/11/08 04:41:19;;;;;;;3.53;1.00;;;8.10;99.90;;;;;;4397829;32;20566;-64
2021/11/08 04:49:54;;;;;;;2.00;0.88;;;8.20;99.90;;;;;;4427564;32;20121;-64
2021/11/08 04:57:26;;;;;;;0.30;0.30;;;8.30;99.90;;;;;;4421369;32;20054;-64
2021/11/08 05:29:52;;;;;;;0.93;0.85;;;8.30;99.90;;;;;;4413839;32;20108;-64
2021/11/08 05:31:43;;;;;;;;;;;8.40;99.90;;;;;;4411277;32;20201;-65
2021/11/08 05:34:08;;;;;;;8.60;1.75;;;8.40;99.90;;;;;;4427694;32;19941;-65
2021/11/08 05:36:34;;;;;;;5.85;0.65;;;8.40;99.90;;;;;;4404552;32;20124;-64
2021/11/08 05:39:01;;;;;;;0.20;0.20;;;8.40;99.90;;;;;;4426959;32;20128;-64
2021/11/08 05:41:27;;;;;;;3.53;1.60;;;8.40;99.90;;;;;;4424827;32;20566;-64
2021/11/08 05:43:53;;;;;;;0.40;0.40;;;8.40;99.90;;;;;;4422637;32;20120;-65
2021/11/08 05:46:20;;;;;;;5.68;2.42;;;8.40;99.90;;;;;;4419059;32;20074;-64
2021/11/08 05:48:46;;;;;;;0.45;0.45;;;8.40;99.90;;;;;;4413684;32;20101;-64
2021/11/08 05:51:12;;;;;;;0.30;0.30;;;8.50;99.90;;;;;;4410833;32;20349;-64
2021/11/08 05:53:38;;;;;;;0.50;0.50;;;8.40;99.90;;;;;;4405736;32;20075;-64
2021/11/08 05:58:54;;;;;;;0.40;0.40;;;8.50;99.90;;;;;;4418546;32;20052;-64
2021/11/08 06:48:15;;;;;;;0.30;0.30;;;8.50;99.90;;;;;;4403277;32;20054;-64
2021/11/08 06:49:20;;;;;;;0.50;0.50;;;8.50;99.90;;;;;;4383528;32;20070;-66
2021/11/08 06:51:01;;;;;;;1.27;1.15;;;8.60;99.90;;;;;;4391736;32;20164;-66
2021/11/08 06:53:31;;;;;;;3.20;1.37;;;8.60;99.90;;;;;;4396482;32;20222;-67
2021/11/08 06:55:58;;;;;;;3.78;0.60;;;8.60;99.90;;;;;;4400879;32;20247;-66
2021/11/08 06:58:26;;;;;;;0.70;0.70;;;8.60;99.90;;;;;;4378404;32;20090;-66
2021/11/08 07:00:52;;;;;;;16.02;3.97;;;8.60;99.90;;;;;;4392995;32;20112;-66
2021/11/08 07:03:18;;;;;;;0.40;0.40;;;8.60;99.90;;;;;;4399171;32;20582;-65
2021/11/08 07:05:44;;;;;;;2.83;0.95;;;8.70;99.90;;;;;;4392836;32;20156;-65
2021/11/08 07:08:10;;;;;;;0.28;0.28;;;8.70;99.90;;;;;;4383471;32;20505;-66
2021/11/08 07:10:37;;;;;;;0.50;0.50;;;8.60;99.90;;;;;;4377849;32;21206;-65
2021/11/08 07:13:03;;;;;;;0.37;0.37;;;8.60;99.90;;;;;;4377221;32;20077;-66
2021/11/08 07:15:30;;;;;;;1.08;0.93;;;8.60;99.90;;;;;;4387179;32;20546;-65
2021/11/08 07:17:56;;;;;;;0.62;0.50;;;8.60;99.90;;;;;;4396647;32;20257;-66
2021/11/08 07:20:23;;;;;;;0.62;0.62;;;8.60;99.90;;;;;;4405670;32;20094;-66
2021/11/08 07:22:50;;;;;;;2.50;0.85;;;8.70;99.90;;;;;;4377688;32;20086;-65
2021/11/08 07:25:16;;;;;;;0.22;0.22;;;8.80;99.90;;;;;;4373520;32;20143;-65
2021/11/08 07:27:41;;;;;;;0.50;0.50;;;8.80;99.90;;;;;;4402278;32;20082;-66
2021/11/08 07:30:08;;;;;;;0.47;0.47;;;8.80;99.90;;;;;;4390232;32;20086;-65
2021/11/08 07:32:34;;;;;;;0.40;0.40;;;8.80;99.90;;;;;;4386544;32;20186;-65
2021/11/08 07:34:59;;;;;;;3.05;1.02;;;8.90;99.90;;;;;;4387524;32;20526;-65
2021/11/08 07:37:26;;;;;;;0.95;0.40;;;8.80;99.90;;;;;;4391492;32;20105;-65
2021/11/08 07:39:52;;;;;;;1.35;1.10;;;8.90;99.90;;;;;;4386176;32;20070;-66
2021/11/08 07:42:19;;;;;;;4.85;1.12;;;8.90;99.90;;;;;;4385473;32;20081;-66
2021/11/08 07:44:44;;;;;;;5.75;0.75;;;8.90;99.90;;;;;;4397399;32;20788;-65
2021/11/08 07:47:10;;;;;;;9.48;1.40;;;8.90;99.90;;;;;;4399430;32;20105;-66
2021/11/08 07:49:36;;;;;;;8.60;1.83;;;9.00;99.90;;;;;;4396198;32;20117;-66
2021/11/08 07:52:03;;;;;;;0.60;0.60;;;9.00;99.90;;;;;;4394214;32;20074;-66
2021/11/08 07:54:31;;;;;;;2.00;0.65;;;9.10;99.90;;;;;;4397788;32;20358;-66
2021/11/08 07:56:57;;;;;;;0.32;0.32;;;9.20;99.90;;;;;;4397404;32;20082;-67
2021/11/08 07:59:23;;;;;;;4.53;0.82;;;9.20;99.90;;;;;;4379466;32;20066;-66
2021/11/08 08:01:49;;;;;;;0.40;0.40;;;9.30;99.90;;;;;;4385076;32;20079;-66
2021/11/08 08:04:15;;;;;;;3.62;1.00;;;9.30;99.90;;;;;;4398700;32;20144;-65
2021/11/08 08:06:42;;;;;;;0.43;0.43;;;9.40;99.90;;;;;;4365743;32;20085;-65
2021/11/08 08:09:07;;;;;;;3.37;0.93;;;9.40;99.90;;;;;;4380434;32;20096;-66
2021/11/08 08:11:33;;;;;;;3.90;0.75;;;9.40;99.90;;;;;;4396774;32;20062;-66
2021/11/08 08:13:59;;;;;;;0.50;0.50;;;9.40;99.90;;;;;;4384839;32;20089;-65
2021/11/08 08:16:26;;;;;;;0.32;0.32;;;9.40;99.90;;;;;;4381757;32;20113;-65
2021/11/08 08:18:51;;;;;;;8.52;0.57;;;9.40;99.90;;;;;;4384646;32;20144;-66
2021/11/08 08:21:18;;;;;;;0.57;0.57;;;9.40;99.90;;;;;;4383504;32;20326;-66
2021/11/08 08:23:44;;;;;;;0.40;0.40;;;9.40;99.90;;;;;;4382706;32;20256;-66
2021/11/08 08:26:11;;;;;;;6.60;0.65;;;9.40;99.90;;;;;;4381452;32;20150;-66
2021/11/08 08:28:38;;;;;;;4.68;1.58;;;9.30;99.90;;;;;;4397094;32;20074;-66
2021/11/08 08:31:04;;;;;;;0.30;0.30;;;9.30;99.90;;;;;;4379879;32;20110;-66
2021/11/08 08:33:31;;;;;;;3.50;0.98;;;9.20;99.90;;;;;;4388903;32;20085;-66
2021/11/08 08:35:57;;;;;;;1.55;0.73;;;9.30;99.90;;;;;;4393726;32;20132;-66
2021/11/08 08:38:23;;;;;;;0.40;0.40;;;9.30;99.90;;;;;;4377630;32;20119;-65
2021/11/08 08:40:50;;;;;;;3.25;0.77;;;9.20;99.90;;;;;;4392990;32;20079;-65
2021/11/08 08:43:17;;;;;;;0.30;0.30;;;9.20;99.90;;;;;;4394210;32;20491;-65
2021/11/08 08:45:43;;;;;;;3.85;0.45;;;9.20;99.90;;;;;;4394458;32;20611;-63
2021/11/08 08:48:11;;;;;;;0.85;0.80;;;9.20;99.90;;;;;;4374639;32;20106;-66
2021/11/08 08:50:38;;;;;;;2.30;1.58;;;9.30;99.90;;;;;;4375348;32;20106;-65
2021/11/08 08:53:04;;;;;;;25.77;1.85;;;9.20;99.90;;;;;;4382461;32;21558;-64
2021/11/08 08:55:29;;;;;;;0.30;0.30;;;9.30;99.90;;;;;;4374056;32;20077;-65
2021/11/08 08:57:55;;;;;;;0.50;0.50;;;9.30;99.90;;;;;;4378241;32;20594;-64
2021/11/08 09:00:22;;;;;;;2.05;0.77;;;9.40;99.90;;;;;;4364040;32;20106;-64
2021/11/08 09:02:50;;;;;;;2.65;1.02;;;9.30;99.90;;;;;;4395918;32;20077;-64
2021/11/08 09:05:17;;;;;;;0.62;0.62;;;9.30;99.90;;;;;;4394393;32;20128;-65
2021/11/08 09:07:42;;;;;;;0.40;0.40;;;9.30;99.90;;;;;;4394038;32;20078;-65
2021/11/08 09:10:08;;;;;;;0.40;0.40;;;9.40;99.90;;;;;;4392643;32;20094;-64
2021/11/08 09:12:34;;;;;;;0.30;0.30;;;9.40;99.90;;;;;;4397849;32;20073;-64
2021/11/08 09:15:00;;;;;;;1.33;0.35;;;9.40;99.90;;;;;;4378244;32;20161;-62
2021/11/08 09:17:25;;;;;;;0.52;0.52;;;9.40;99.90;;;;;;4389699;32;20099;-64
2021/11/08 09:19:51;;;;;;;2.15;0.70;;;9.40;99.90;;;;;;4394939;32;20090;-64
2021/11/08 09:22:17;;;;;;;0.70;0.70;;;9.40;99.90;;;;;;4378533;32;20547;-65
2021/11/08 09:24:42;;;;;;;0.50;0.50;;;9.40;99.90;;;;;;4394140;32;20081;-65
2021/11/08 09:27:09;;;;;;;0.70;0.47;;;9.50;99.90;;;;;;4395527;32;20089;-64
2021/11/08 09:29:34;;;;;;;0.40;0.40;;;9.50;99.90;;;;;;4382007;32;20468;-64
2021/11/08 09:32:00;;;;;;;0.62;0.60;;;9.60;99.90;;;;;;4393902;32;20164;-65
2021/11/08 09:34:26;;;;;;;1.65;1.42;;;9.60;99.90;;;;;;4391823;32;20098;-65
2021/11/08 09:36:54;;;;;;;0.30;0.30;;;9.70;99.90;;;;;;4394056;32;20132;-64
2021/11/08 09:39:27;;;;;;;2.90;0.65;;;9.70;99.90;;;;;;4368538;32;20619;-65
2021/11/08 09:41:57;;;;;;;3.20;0.98;;;9.80;99.90;;;;;;4383551;32;20069;-65
2021/11/08 09:44:23;;;;;;;0.30;0.30;;;9.80;99.90;;;;;;4395966;32;20136;-64
2021/11/08 09:46:52;;;;;;;1.17;0.90;;;9.80;99.90;;;;;;4393370;32;20093;-64
2021/11/08 09:49:18;;;;;;;6.75;0.70;;;9.80;99.90;;;;;;4379836;32;20103;-64
2021/11/08 09:51:45;;;;;;;0.55;0.50;;;9.80;99.90;;;;;;4394908;32;20098;-64
2021/11/08 09:54:12;;;;;;;0.50;0.50;;;9.70;99.90;;;;;;4393775;32;20237;-64
2021/11/08 09:56:42;;;;;;;0.40;0.40;;;9.70;99.90;;;;;;4391974;32;20094;-64
2021/11/08 09:59:08;;;;;;;0.50;0.45;;;9.80;99.90;;;;;;4378695;32;20082;-63
2021/11/08 10:01:39;;;;;;;8.93;1.23;;;9.80;99.90;;;;;;4376459;32;20611;-64
2021/11/08 10:04:06;;;;;;;0.30;0.30;;;9.90;99.90;;;;;;4383078;32;20379;-64
2021/11/08 10:06:32;;;;;;;1.45;1.35;;;9.90;99.90;;;;;;4390043;32;20589;-64
2021/11/08 10:08:58;;;;;;;0.40;0.40;;;9.90;99.90;;;;;;4379286;32;20532;-64
2021/11/08 10:11:24;;;;;;;0.30;0.30;;;10.00;99.90;;;;;;4374069;32;20785;-63
2021/11/08 10:13:52;;;;;;;1.37;0.82;;;10.10;99.90;;;;;;4375188;32;20437;-64
2021/11/08 10:16:23;;;;;;;7.45;0.60;;;10.10;99.90;;;;;;4369939;32;20090;-64
2021/11/08 10:18:53;;;;;;;0.47;0.47;;;10.00;99.90;;;;;;4378006;32;21336;-64
2021/11/08 10:21:24;;;;;;;0.60;0.60;;;10.10;99.90;;;;;;4360800;32;20613;-63
2021/11/08 10:23:54;;;;;;;1.90;1.17;;;10.10;99.90;;;;;;4375749;32;20804;-64
2021/11/08 10:26:24;;;;;;;1.02;0.90;;;10.20;99.90;;;;;;4387884;32;20069;-65
2021/11/08 10:28:54;;;;;;;0.80;0.80;;;10.30;99.90;;;;;;4372844;32;20153;-64
2021/11/08 10:31:24;;;;;;;0.40;0.40;;;10.40;99.90;;;;;;4366991;32;20077;-63
2021/11/08 10:33:50;;;;;;;1.20;0.57;;;10.60;99.90;;;;;;4387078;32;20559;-64
2021/11/08 10:36:20;;;;;;;0.20;0.20;;;10.70;99.90;;;;;;4392952;32;20183;-63
2021/11/08 10:38:47;;;;;;;0.40;0.40;;;10.90;99.90;;;;;;4378095;32;20330;-63
2021/11/08 10:41:15;;;;;;;1.65;1.08;;;11.00;99.90;;;;;;4388096;32;20614;-64
2021/11/08 10:43:53;;;;;;;0.50;0.50;;;11.00;99.90;;;;;;4380438;32;20070;-64
2021/11/08 10:46:24;;;;;;;3.45;1.30;;;11.00;99.90;;;;;;4402406;32;20099;-64
2021/11/08 10:48:52;;;;;;;;;;;10.90;99.90;;;;;;4395956;32;20562;-65
2021/11/08 10:51:22;;;;;;;3.20;1.87;;;10.90;99.90;;;;;;4397154;32;19957;-65
2021/11/08 10:53:52;;;;;;;5.25;0.80;;;10.90;99.90;;;;;;4394155;32;20137;-66
2021/11/08 10:56:21;;;;;;;6.50;0.75;;;10.90;99.90;;;;;;4376920;32;20311;-64
2021/11/08 10:58:47;;;;;;;19.83;2.62;;;11.00;99.90;;;;;;4380761;32;21823;-65
2021/11/08 11:01:24;;;;;;;3.97;0.60;;;11.10;99.90;;;;;;4394694;32;20082;-65
2021/11/08 11:03:53;;;;;;;0.45;0.45;;;11.10;99.90;;;;;;4388479;32;20202;-65
2021/11/08 11:06:21;;;;;;;8.52;0.98;;;11.20;99.90;;;;;;4394219;32;20136;-63
2021/11/08 11:08:50;;;;;;;0.75;0.50;;;11.20;99.90;;;;;;4379154;32;20062;-65
2021/11/08 11:11:20;;;;;;;3.25;1.27;;;11.10;99.90;;;;;;4387070;32;20094;-65
2021/11/08 11:13:51;;;;;;;3.20;1.23;;;11.10;99.90;;;;;;4382775;32;20632;-63
2021/11/08 11:16:29;;;;;;;1.40;0.80;;;10.90;99.90;;;;;;4379618;32;20098;-66
2021/11/08 11:19:04;;;;;;;0.65;0.65;;;10.90;99.90;;;;;;4382273;32;20102;-64
2021/11/08 11:21:30;;;;;;;0.70;0.70;;;10.80;99.90;;;;;;4392277;32;20081;-64
2021/11/08 11:24:02;;;;;;;0.40;0.40;;;10.80;99.90;;;;;;4394255;32;20097;-63
2021/11/08 11:26:30;;;;;;;2.85;1.98;;;10.90;99.90;;;;;;4383160;32;20090;-63
2021/11/08 11:28:57;;;;;;;0.40;0.40;;;10.80;99.90;;;;;;4386872;32;20086;-64
2021/11/08 11:31:25;;;;;;;1.27;1.02;;;10.90;99.90;;;;;;4402375;32;20074;-65
2021/11/08 11:33:55;;;;;;;0.40;0.40;;;10.80;99.90;;;;;;4387687;32;20062;-63
2021/11/08 11:36:22;;;;;;;6.40;0.95;;;10.70;99.90;;;;;;4393034;32;20073;-65
2021/11/08 11:38:56;;;;;;;0.62;0.62;;;10.70;99.90;;;;;;4397589;32;20174;-65
2021/11/08 11:41:26;;;;;;;4.37;2.10;;;10.80;99.90;;;;;;4382835;32;20086;-64
2021/11/08 11:43:56;;;;;;;0.30;0.30;;;10.80;99.90;;;;;;4399465;32;20094;-64
2021/11/08 11:46:24;;;;;;;0.28;0.28;;;10.80;99.90;;;;;;4394672;32;20124;-63
2021/11/08 11:48:51;;;;;;;1.33;0.65;;;10.80;99.90;;;;;;4379372;32;20476;-63
2021/11/08 11:51:21;;;;;;;0.60;0.60;;;10.80;99.90;;;;;;4396464;32;20585;-63
2021/11/08 11:53:47;;;;;;;8.48;0.90;;;10.80;99.90;;;;;;4387897;32;20609;-64
2021/11/08 11:56:16;;;;;;;2.25;1.15;;;10.70;99.90;;;;;;4370781;32;20141;-62
2021/11/08 11:58:43;;;;;;;3.00;0.73;;;10.70;99.90;;;;;;4374142;32;20626;-64
2021/11/08 12:01:11;;;;;;;0.52;0.52;;;10.90;99.90;;;;;;4388676;32;20116;-64
2021/11/08 12:03:37;;;;;;;0.50;0.50;;;10.80;99.90;;;;;;4381156;32;20122;-64
2021/11/08 12:06:03;;;;;;;0.35;0.35;;;10.80;99.90;;;;;;4372379;32;20090;-64
2021/11/08 12:08:34;;;;;;;0.40;0.40;;;10.80;99.90;;;;;;4383618;32;20114;-63
2021/11/08 12:11:00;;;;;;;2.17;0.60;;;10.80;99.90;;;;;;4390813;32;20312;-63
2021/11/08 12:13:28;;;;;;;2.62;0.82;;;11.00;99.90;;;;;;4388300;32;20081;-63
2021/11/08 12:15:54;;;;;;;0.85;0.50;;;11.10;99.90;;;;;;4357136;32;20098;-64
2021/11/08 12:18:21;;;;;;;11.30;0.95;;;11.30;99.90;;;;;;4376051;32;20117;-64
2021/11/08 12:20:51;;;;;;;0.40;0.40;;;11.30;99.90;;;;;;4376281;32;20183;-64
2021/11/08 12:23:18;;;;;;;;;;;11.30;99.90;;;;;;4383595;32;20955;-64
2021/11/08 12:25:45;;;;;;;2.08;0.60;;;11.40;99.90;;;;;;4396450;32;19959;-63
2021/11/08 12:28:14;;;;;;;0.30;0.30;;;11.40;99.90;;;;;;4360650;32;20539;-63
2021/11/08 12:30:44;;;;;;;0.30;0.30;;;11.40;99.90;;;;;;4391200;32;20085;-64
2021/11/08 12:33:32;;;;;;;1.60;0.82;;;11.40;99.90;;;;;;4372251;32;20093;-63
2021/11/08 12:36:15;;;;;;;0.30;0.30;;;11.40;99.90;;;;;;4382292;32;20496;-63
2021/11/08 12:38:54;;;;;;;0.40;0.40;;;11.50;99.90;;;;;;4375894;32;20113;-63
2021/11/08 12:41:28;;;;;;;11.52;0.57;;;11.40;99.90;;;;;;4389696;32;20208;-63
2021/11/08 12:43:58;;;;;;;0.85;0.85;;;11.30;99.90;;;;;;4376645;32;20182;-63
2021/11/08 12:46:31;;;;;;;0.50;0.50;;;11.30;99.90;;;;;;4387409;32;20102;-65
2021/11/08 12:49:08;;;;;;;0.88;0.55;;;11.20;99.90;;;;;;4375209;32;20472;-64
2021/11/08 12:51:33;;;;;;;0.50;0.50;;;11.20;99.90;;;;;;4384893;32;20176;-65
2021/11/08 12:54:04;;;;;;;0.40;0.40;;;11.10;99.90;;;;;;4401114;32;20088;-65
2021/11/08 12:56:35;;;;;;;1.95;1.40;;;11.10;99.90;;;;;;4393354;32;20085;-66
2021/11/08 12:59:13;;;;;;;0.32;0.32;;;11.10;99.90;;;;;;4381351;32;20098;-64
2021/11/08 13:01:41;;;;;;;0.30;0.30;;;11.10;99.90;;;;;;4396633;32;20113;-64
2021/11/08 13:04:09;;;;;;;0.30;0.30;;;11.10;99.90;;;;;;4383115;32;20158;-65
2021/11/08 13:06:36;;;;;;;0.40;0.40;;;11.20;99.90;;;;;;4389910;32;20081;-64
2021/11/08 13:09:16;;;;;;;8.27;0.50;;;11.20;99.90;;;;;;4384304;32;20244;-65
2021/11/08 13:11:46;;;;;;;1.00;0.95;;;11.10;99.90;;;;;;4384829;32;20101;-65
2021/11/08 13:14:30;;;;;;;0.40;0.40;;;11.10;99.90;;;;;;4394939;32;20097;-65
2021/11/08 13:17:19;;;;;;;0.40;0.40;;;11.10;99.90;;;;;;4395730;32;20062;-64
2021/11/08 13:19:49;;;;;;;0.40;0.40;;;11.10;99.90;;;;;;4367440;32;20381;-64
2021/11/08 13:22:35;;;;;;;0.32;0.32;;;11.10;99.90;;;;;;4401019;32;20399;-64
2021/11/08 13:25:06;;;;;;;1.65;0.65;;;11.00;99.90;;;;;;4385464;32;20081;-64
2021/11/08 13:27:33;;;;;;;0.65;0.65;;;11.00;99.90;;;;;;4381382;32;20221;-65
2021/11/08 13:30:02;;;;;;;0.35;0.35;;;11.00;99.90;;;;;;4383708;32;20085;-65
2021/11/08 13:32:30;;;;;;;11.05;0.70;;;11.00;99.90;;;;;;4390813;32;20360;-66
2021/11/08 13:35:04;;;;;;;0.50;0.50;;;11.10;99.90;;;;;;4395949;32;20218;-64
2021/11/08 13:37:36;;;;;;;1.65;0.50;;;11.10;99.90;;;;;;4386725;32;20078;-65
2021/11/08 13:40:20;;;;;;;0.40;0.40;;;11.20;99.90;;;;;;4388390;32;20372;-64
2021/11/08 13:42:47;;;;;;;0.85;0.85;;;11.10;99.90;;;;;;4384928;32;20102;-64
2021/11/08 13:45:13;;;;;;;9.52;1.05;;;11.20;99.90;;;;;;4391688;32;20139;-64
2021/11/08 13:47:42;;;;;;;4.55;1.85;;;11.20;99.90;;;;;;4403103;32;20772;-65
2021/11/08 13:50:14;;;;;;;5.62;1.83;;;11.20;99.90;;;;;;4389890;32;20096;-64
2021/11/08 13:52:41;;;;;;;0.65;0.65;;;11.10;99.90;;;;;;4414686;32;20144;-65
2021/11/08 13:55:09;;;;;;;0.40;0.40;;;11.00;99.90;;;;;;4381550;32;20098;-64
2021/11/08 13:57:39;;;;;;;0.40;0.40;;;11.00;99.90;;;;;;4414273;32;20069;-65
2021/11/08 14:00:10;;;;;;;0.30;0.30;;;11.00;99.90;;;;;;4417589;32;20084;-65
2021/11/08 14:02:37;;;;;;;;;;;11.00;99.90;;;;;;4416209;32;20073;-65
2021/11/08 14:05:05;;;;;;;1.08;0.60;;;11.10;99.90;;;;;;4418349;32;19964;-65
2021/11/08 14:07:32;;;;;;;0.40;0.40;;;11.00;99.90;;;;;;4386572;32;20061;-65
2021/11/08 14:09:57;;;;;;;0.65;0.60;;;11.00;99.90;;;;;;4416508;32;20428;-65
2021/11/08 14:12:28;;;;;;;0.75;0.75;;;11.00;99.90;;;;;;4412292;32;20125;-65
2021/11/08 14:14:56;;;;;;;0.40;0.40;;;11.00;99.90;;;;;;4382514;32;20390;-65
2021/11/08 14:17:26;;;;;;;2.00;0.43;;;11.00;99.90;;;;;;4417582;32;20121;-65
2021/11/08 14:19:54;;;;;;;0.70;0.70;;;11.00;99.90;;;;;;4401939;32;20105;-65
2021/11/08 14:22:30;;;;;;;0.45;0.45;;;10.90;99.90;;;;;;4401448;32;20162;-65
2021/11/08 14:24:57;;;;;;;2.75;1.17;;;10.90;99.90;;;;;;4403491;32;20057;-65
2021/11/08 14:27:27;;;;;;;1.95;1.10;;;10.90;99.90;;;;;;4391419;32;20189;-65
2021/11/08 14:29:53;;;;;;;0.75;0.75;;;10.90;99.90;;;;;;4386008;32;20096;-66
2021/11/08 14:32:24;;;;;;;1.55;0.80;;;10.90;99.90;;;;;;4417943;32;20132;-65